MDPP

Gregorio Luperon International Airport

Puerto Plata, Dominican Republic
TAF MDPP 211600Z 2118/2218 06010KT 9999 FEW020 SCT300 PROB40 2119/2201 6000 TSRA FEW018CB SCT020 BKN070 BECMG 2200/2202 00000KT
Issued Valid From Valid To
Jun-21 @ 16:00 UTC
(2 hours ago)
Jun-21 @ 18:00 UTC
(4 minutes ago)
Jun-22 @ 18:00 UTC
(in 24 hours)
Jun-21 @ 18:00 to Jun-22 @ 00:00
TAF MDPP 211600Z 2118/2218 06010KT 9999 FEW020 SCT300
Wind Visibility Clouds
60° at 10 knots 10,000+ meters
  • Few at 2,000' AGL
  • Scattered at 30,000' AGL
Probable  (Probability 40%) Jun-21 @ 19:00 to Jun-22 @ 01:00
PROB40 2119/2201 6000 TSRA FEW018CB SCT020 BKN070
Visibility Clouds Conditions
6,003 meters
  • Few at 1,800' AGL
  • Scattered at 2,000' AGL
  • Broken at 7,000' AGL
  • Thunderstorm
  • Rain
Becoming Jun-22 @ 00:00 to Jun-22 @ 18:00
BECMG 2200/2202 00000KT
Visibility Clouds
10,000+ meters
  • Few at 2,000' AGL
  • Scattered at 30,000' AGL
TAF MDPP 211600Z 2118/2218 06010KT 9999 FEW020 SCT300 PROB40 2119/2201 6000 TSRA FEW018CB SCT020 BKN070 BECMG 2200/2202 00000KT
Issued Jun-21 @ 16:00 UTC
(2 hours ago)
Valid From Jun-21 @ 18:00 UTC
(4 minutes ago)
Valid To Jun-22 @ 18:00 UTC
(in 24 hours)
Jun-21 @ 18:00 - Jun-22 @ 00:00
Wind Visibility
60° at 10 knots 10,000+ meters
Clouds
  • Few at 2,000' AGL
  • Scattered at 30,000' AGL
Probability 40% Probable Jun-21 @ 19:00 - Jun-22 @ 01:00
Clouds
  • Few at 1,800' AGL
  • Scattered at 2,000' AGL
  • Broken at 7,000' AGL
Conditions
  • Thunderstorm
  • Rain
Becoming Jun-22 @ 00:00 - Jun-22 @ 18:00
Clouds
  • Few at 2,000' AGL
  • Scattered at 30,000' AGL